< < Back
Terminal Aerodrome Forecast


Current Version              Previous Versions:   1  2  3  4  5  6  7  8  9  

Terminal Aerodrome Forecast

072
FTUS42 KFFC 221900 AAA
TAFATL
TAF AMD
KATL 221951Z 2220/2324 34010KT P6SM SKC
     FM230100 35004KT P6SM SKC
     FM231600 32005KT P6SM FEW250=

Latest METAR

032
SAUS70 KWBC 230100 RRC
MTRATL
METAR KATL 230052Z 33010KT 10SM CLR 14/06 A3010 RMK AO2 SLP193
T01390056


USA.gov is the U.S. government's official web portal to all federal, state and local government web resources and services.